createdAt,value
2022-10-31T00:02:30.691Z,8.2
2022-10-31T00:12:07.187Z,8.3
2022-10-31T00:21:44.430Z,8.23
2022-10-31T00:31:21.279Z,8.25
2022-10-31T00:40:58.322Z,7.87
2022-10-31T00:50:34.670Z,8.19
2022-10-31T01:00:11.931Z,8.05
2022-10-31T01:09:48.937Z,8.09
2022-10-31T01:19:26.123Z,8.21
2022-10-31T01:29:02.707Z,7.97
2022-10-31T01:38:39.682Z,7.84
2022-10-31T01:48:16.490Z,7.69
2022-10-31T01:57:53.187Z,7.63
2022-10-31T02:07:30.369Z,8.17
2022-10-31T02:17:07.697Z,8.29
2022-10-31T02:26:44.512Z,7.71
2022-10-31T02:36:21.257Z,7.33
2022-10-31T02:45:58.102Z,7.14
2022-10-31T02:55:34.625Z,7.69
2022-10-31T03:05:11.609Z,7.38
2022-10-31T03:14:48.513Z,6.99
2022-10-31T03:24:24.865Z,6.69
2022-10-31T03:34:01.109Z,6.45
2022-10-31T03:43:37.648Z,6.09
2022-10-31T03:53:14.508Z,6.24
2022-10-31T04:02:51.562Z,6.28
2022-10-31T04:12:28.723Z,6.13
2022-10-31T04:22:05.737Z,6.04
2022-10-31T04:31:42.730Z,6.02
2022-10-31T04:41:19.852Z,6.2
2022-10-31T04:50:56.554Z,5.96
2022-10-31T05:00:33.241Z,5.79
2022-10-31T05:10:09.717Z,5.84
2022-10-31T05:19:46.645Z,5.73
2022-10-31T05:29:23.886Z,5.99
2022-10-31T05:39:00.702Z,6.08
2022-10-31T05:48:37.638Z,6.08
2022-10-31T05:58:14.544Z,6.03
2022-10-31T06:07:51.489Z,5.83
2022-10-31T06:17:28.245Z,5.68
2022-10-31T06:27:05.121Z,5.56
2022-10-31T06:36:41.931Z,5.79
2022-10-31T06:46:20.775Z,5.97
2022-10-31T06:55:56.355Z,6.32
2022-10-31T07:05:33.550Z,6.47
2022-10-31T07:15:10.597Z,6.76
2022-10-31T07:24:48.248Z,7.04
2022-10-31T07:34:25.827Z,7.53
2022-10-31T07:44:03.275Z,8.2
2022-10-31T07:53:41.120Z,8.64
2022-10-31T08:03:18.950Z,9.1
2022-10-31T08:12:56.438Z,9.43
2022-10-31T08:22:34.431Z,9.7
2022-10-31T08:32:11.944Z,9.97
2022-10-31T08:41:49.787Z,10.46
2022-10-31T08:51:27.272Z,10.8
2022-10-31T09:01:05.256Z,11.16
2022-10-31T09:10:42.870Z,11.5
2022-10-31T09:20:21.084Z,11.82
2022-10-31T09:29:59.666Z,12.45
2022-10-31T09:39:36.920Z,12.9
2022-10-31T09:49:15.160Z,13.39
2022-10-31T09:58:53.220Z,13.66
2022-10-31T10:08:31.845Z,13.98
2022-10-31T10:18:10.019Z,14.31
2022-10-31T10:27:49.071Z,14.98
2022-10-31T10:37:28.328Z,15.27
2022-10-31T10:47:15.243Z,17.05
2022-10-31T10:57:08.323Z,18.48
2022-10-31T11:06:55.782Z,19.44
2022-10-31T11:16:40.624Z,19.78
2022-10-31T11:26:11.950Z,19.79
2022-10-31T11:35:52.025Z,20.87
2022-10-31T11:45:24.599Z,20.51
2022-10-31T11:54:50.436Z,19.96
2022-10-31T12:04:25.397Z,19.95
2022-10-31T12:14:10.182Z,20.21
2022-10-31T12:23:42.370Z,20.02
2022-10-31T12:33:19.600Z,20.5
2022-10-31T12:43:00.239Z,20.61
2022-10-31T12:52:38.235Z,20.31
2022-10-31T13:02:13.269Z,20.23
2022-10-31T13:11:50.444Z,19.69
2022-10-31T13:21:27.137Z,19.45
2022-10-31T13:31:02.133Z,19.23
2022-10-31T13:40:37.775Z,19.33
2022-10-31T13:50:18.257Z,19.25
2022-10-31T13:59:50.613Z,18.53
2022-10-31T14:09:26.777Z,18.54
2022-10-31T14:19:03.025Z,18.46
2022-10-31T14:28:39.673Z,18.14
2022-10-31T14:38:15.938Z,17.9
2022-10-31T14:47:52.363Z,17.54
2022-10-31T14:57:28.866Z,17.19
2022-10-31T15:07:04.986Z,16.96
2022-10-31T15:16:41.628Z,16.71
2022-10-31T15:26:18.414Z,16.45
2022-10-31T15:35:54.733Z,16.13
2022-10-31T15:45:31.556Z,15.9
2022-10-31T15:55:08.209Z,15.47
2022-10-31T16:04:44.274Z,15.03
2022-10-31T16:14:23.252Z,14.84
2022-10-31T16:23:58.257Z,14.75
2022-10-31T16:33:33.989Z,14.66
2022-10-31T16:43:10.470Z,14.37
2022-10-31T16:53:00.892Z,13.98
2022-10-31T17:02:23.488Z,13.64
2022-10-31T17:12:00.171Z,13.35
2022-10-31T17:21:36.933Z,13.09
2022-10-31T17:31:13.551Z,13
2022-10-31T17:50:27.372Z,13
2022-10-31T18:00:04.311Z,12.76
2022-10-31T18:09:41.167Z,12.52
2022-10-31T18:19:19.185Z,12.22
2022-10-31T18:28:55.340Z,12.07
2022-10-31T18:38:32.374Z,11.96
2022-10-31T18:48:09.263Z,11.83
2022-10-31T18:57:46.101Z,12.13
2022-10-31T19:07:22.838Z,11.67
2022-10-31T19:17:01.239Z,11.28
2022-10-31T19:26:35.673Z,11.22
2022-10-31T19:36:12.188Z,11.25
2022-10-31T19:45:49.282Z,10.8
2022-10-31T19:55:25.605Z,10.58
2022-10-31T20:05:02.052Z,10.34
2022-10-31T20:14:38.914Z,10.25
2022-10-31T20:24:16.018Z,10.11
2022-10-31T20:33:53.425Z,10.14
2022-10-31T20:43:30.476Z,10.12
2022-10-31T20:53:07.906Z,10.14
2022-10-31T21:02:44.960Z,10.11
2022-10-31T21:12:22.095Z,10.45
2022-10-31T21:21:59.143Z,10.31
2022-10-31T21:31:37.424Z,10.11
2022-10-31T21:41:13.630Z,10.01
2022-10-31T21:50:50.651Z,10.3
2022-10-31T22:00:28.012Z,10.37
2022-10-31T22:10:05.583Z,10.65
2022-10-31T22:19:43.053Z,10.43
2022-10-31T22:29:19.786Z,10.24
2022-10-31T22:38:56.462Z,10.36
2022-10-31T22:48:33.882Z,10.24
2022-10-31T22:58:10.871Z,9.67
2022-10-31T23:07:47.358Z,9.59
2022-10-31T23:17:24.496Z,9.41
2022-10-31T23:27:01.274Z,9.25
2022-10-31T23:36:38.709Z,9.65
2022-10-31T23:46:16.311Z,9.78
2022-10-31T23:55:52.942Z,9.94
